Terminal Aerodrome Forecast
Issued by NWS Wilmington, NC

Home | Current Version | Previous Version | Text Only | Print | Product List | Glossary On
Versions: 1 2 3 4 5 6 7 8 9 10 11 12 13 14 15 16 17 18 19 20 21 22 23
590
FTUS42 KILM 180532
TAFMYR
TAF
KMYR 180532Z 1806/1906 22010KT P6SM BKN250
     FM181300 24012G18KT P6SM BKN080
     FM181800 29013KT P6SM BKN080
     FM182100 28011KT P6SM SCT080
     FM190000 01006KT P6SM SKC
      AMD LTD TO CLD VIS AND WIND TIL 181100=

USA.gov is the U.S. government's official web portal to all federal, state and local government web resources and services.